Time,TemperatureF,DewpointF,PressureIn,WindDirection,WindDirectionDegrees,WindSpeedMPH,WindSpeedGustMPH,Humidity,HourlyPrecipIn,Conditions,Clouds,dailyrainin,SoftwareType,DateUTC
2014-02-25 00:01:00,25.5,15.4,30.16,NE,49,1.0,3.0,65,0.00,,,0.00,WUHU216DAVISVP2,2014-02-25 05:01:00,
2014-02-25 00:06:00,25.7,15.6,30.15,NE,47,0.0,3.0,65,0.00,,,0.00,WUHU216DAVISVP2,2014-02-25 05:06:00,
2014-02-25 00:11:00,25.4,15.3,30.15,NE,47,0.0,3.0,65,0.00,,,0.00,WUHU216DAVISVP2,2014-02-25 05:11:00,
2014-02-25 00:16:00,25.0,14.9,30.15,NE,46,0.0,2.0,65,0.00,,,0.00,WUHU216DAVISVP2,2014-02-25 05:16:00,
2014-02-25 00:21:00,24.8,14.4,30.15,East,100,1.0,2.0,64,0.00,,,0.00,WUHU216DAVISVP2,2014-02-25 05:21:00,
2014-02-25 00:26:00,24.7,15.0,30.15,NW,317,0.0,1.0,66,0.00,,,0.00,WUHU216DAVISVP2,2014-02-25 05:26:00,
2014-02-25 00:31:00,24.4,15.1,30.14,NNW,335,0.0,1.0,67,0.00,,,0.00,WUHU216DAVISVP2,2014-02-25 05:31:00,
2014-02-25 00:36:00,24.4,14.7,30.14,NNW,335,0.0,1.0,66,0.00,,,0.00,WUHU216DAVISVP2,2014-02-25 05:36:00,
2014-02-25 00:41:00,24.3,14.6,30.14,NNW,335,0.0,1.0,66,0.00,,,0.00,WUHU216DAVISVP2,2014-02-25 05:41:00,
2014-02-25 00:46:00,23.9,14.9,30.14,NNW,335,0.0,1.0,68,0.00,,,0.00,WUHU216DAVISVP2,2014-02-25 05:46:00,
2014-02-25 00:52:00,23.4,14.8,30.14,NNW,335,0.0,1.0,69,0.00,,,0.00,WUHU216DAVISVP2,2014-02-25 05:52:00,
2014-02-25 00:57:00,23.3,15.3,30.14,NNW,334,0.0,0.0,71,0.00,,,0.00,WUHU216DAVISVP2,2014-02-25 05:57:00,
2014-02-25 01:02:00,23.4,15.4,30.13,NNW,334,0.0,1.0,71,0.00,,,0.00,WUHU216DAVISVP2,2014-02-25 06:02:00,
2014-02-25 01:07:00,23.5,15.2,30.13,NNW,335,0.0,1.0,70,0.00,,,0.00,WUHU216DAVISVP2,2014-02-25 06:07:00,
2014-02-25 01:12:00,23.8,14.1,30.13,NNW,335,0.0,1.0,66,0.00,,,0.00,WUHU216DAVISVP2,2014-02-25 06:12:00,
2014-02-25 01:17:00,24.1,14.1,30.13,NNW,335,0.0,1.0,65,0.00,,,0.00,WUHU216DAVISVP2,2014-02-25 06:17:00,
2014-02-25 01:22:00,24.1,13.7,30.13,NNW,335,1.0,1.0,64,0.00,,,0.00,WUHU216DAVISVP2,2014-02-25 06:22:00,
2014-02-25 01:27:00,24.8,14.0,30.14,NNE,24,1.0,1.0,63,0.00,,,0.00,WUHU216DAVISVP2,2014-02-25 06:27:00,
2014-02-25 01:32:00,24.6,14.6,30.14,NNE,25,0.0,1.0,65,0.00,,,0.00,WUHU216DAVISVP2,2014-02-25 06:32:00,
2014-02-25 01:37:00,24.2,15.9,30.14,NNE,25,1.0,1.0,70,0.00,,,0.00,WUHU216DAVISVP2,2014-02-25 06:37:00,
2014-02-25 01:42:00,24.0,16.6,30.14,NNE,25,1.0,1.0,73,0.00,,,0.00,WUHU216DAVISVP2,2014-02-25 06:42:00,
2014-02-25 01:47:00,23.9,16.2,30.14,NNE,25,0.0,1.0,72,0.00,,,0.00,WUHU216DAVISVP2,2014-02-25 06:47:00,
2014-02-25 01:52:00,23.8,15.8,30.14,NNE,25,1.0,1.0,71,0.00,,,0.00,WUHU216DAVISVP2,2014-02-25 06:52:00,
2014-02-25 01:57:00,23.8,14.8,30.14,NNE,25,0.0,1.0,68,0.00,,,0.00,WUHU216DAVISVP2,2014-02-25 06:57:00,
2014-02-25 02:02:00,23.4,15.7,30.14,NNE,25,0.0,1.0,72,0.00,,,0.00,WUHU216DAVISVP2,2014-02-25 07:02:00,
2014-02-25 02:04:00,23.1,15.8,30.14,NNE,25,0.0,1.0,73,0.00,,,0.00,WUHU216DAVISVP2,2014-02-25 07:04:00,
2014-02-25 02:09:00,22.7,15.7,30.14,NE,37,1.0,1.0,74,0.00,,,0.00,WUHU216DAVISVP2,2014-02-25 07:09:00,
2014-02-25 02:14:00,22.8,15.8,30.14,SW,221,1.0,1.0,74,0.00,,,0.00,WUHU216DAVISVP2,2014-02-25 07:14:00,
2014-02-25 02:19:00,22.8,15.5,30.14,SW,221,0.0,1.0,73,0.00,,,0.00,WUHU216DAVISVP2,2014-02-25 07:19:00,
2014-02-25 02:24:00,22.7,15.4,30.14,SW,221,1.0,1.0,73,0.00,,,0.00,WUHU216DAVISVP2,2014-02-25 07:24:00,
2014-02-25 02:29:00,23.0,15.0,30.13,SW,221,0.0,1.0,71,0.00,,,0.00,WUHU216DAVISVP2,2014-02-25 07:29:00,
2014-02-25 02:34:00,23.2,14.9,30.13,NNW,345,1.0,2.0,70,0.00,,,0.00,WUHU216DAVISVP2,2014-02-25 07:34:00,
2014-02-25 02:39:00,23.6,14.9,30.13,North,8,1.5,2.0,69,0.00,,,0.00,WUHU216DAVISVP2,2014-02-25 07:39:00,
2014-02-25 02:44:00,23.8,14.4,30.13,North,354,1.0,2.0,67,0.00,,,0.00,WUHU216DAVISVP2,2014-02-25 07:44:00,
2014-02-25 02:49:00,23.5,14.8,30.13,WNW,283,0.0,2.0,69,0.00,,,0.00,WUHU216DAVISVP2,2014-02-25 07:49:00,
2014-02-25 02:54:00,23.0,15.0,30.12,SW,219,0.0,2.0,71,0.00,,,0.00,WUHU216DAVISVP2,2014-02-25 07:54:00,
2014-02-25 02:59:00,22.8,15.2,30.12,WNW,300,2.0,2.0,72,0.00,,,0.00,WUHU216DAVISVP2,2014-02-25 07:59:00,
2014-02-25 03:04:00,22.6,15.0,30.12,NNE,30,0.0,2.0,72,0.00,,,0.00,WUHU216DAVISVP2,2014-02-25 08:04:00,
2014-02-25 03:09:00,22.4,15.1,30.13,ESE,110,1.0,2.0,73,0.00,,,0.00,WUHU216DAVISVP2,2014-02-25 08:09:00,
2014-02-25 03:14:00,22.4,15.1,30.12,ENE,68,1.0,2.0,73,0.00,,,0.00,WUHU216DAVISVP2,2014-02-25 08:14:00,
2014-02-25 03:19:00,22.8,14.9,30.12,ENE,70,1.0,1.0,71,0.00,,,0.00,WUHU216DAVISVP2,2014-02-25 08:19:00,
2014-02-25 03:24:00,23.1,15.1,30.12,North,352,1.0,2.0,71,0.00,,,0.00,WUHU216DAVISVP2,2014-02-25 08:24:00,
2014-02-25 03:29:00,23.5,14.9,30.11,NNE,25,1.0,2.0,69,0.00,,,0.00,WUHU216DAVISVP2,2014-02-25 08:29:00,
2014-02-25 03:34:00,23.8,14.5,30.12,North,349,1.0,2.0,67,0.00,,,0.00,WUHU216DAVISVP2,2014-02-25 08:34:00,
2014-02-25 03:39:00,23.6,14.3,30.11,NNW,328,1.1,2.0,67,0.00,,,0.00,WUHU216DAVISVP2,2014-02-25 08:39:00,
2014-02-25 03:44:00,23.2,14.3,30.11,South,181,0.0,2.0,68,0.00,,,0.00,WUHU216DAVISVP2,2014-02-25 08:44:00,
2014-02-25 03:49:00,22.9,14.3,30.11,South,182,1.0,2.0,69,0.00,,,0.00,WUHU216DAVISVP2,2014-02-25 08:49:00,
2014-02-25 03:54:00,23.0,14.4,30.11,SSE,158,1.0,2.0,69,0.00,,,0.00,WUHU216DAVISVP2,2014-02-25 08:54:00,
2014-02-25 03:59:00,22.9,14.0,30.11,SSE,165,0.0,1.0,68,0.00,,,0.00,WUHU216DAVISVP2,2014-02-25 08:59:00,
2014-02-25 04:04:00,22.7,13.8,30.11,SSE,165,0.0,1.0,68,0.00,,,0.00,WUHU216DAVISVP2,2014-02-25 09:04:00,
2014-02-25 04:09:00,23.1,14.2,30.11,SSE,165,0.0,1.0,68,0.00,,,0.00,WUHU216DAVISVP2,2014-02-25 09:09:00,
2014-02-25 04:14:00,23.7,14.1,30.11,SSE,165,0.0,1.0,66,0.00,,,0.00,WUHU216DAVISVP2,2014-02-25 09:14:00,
2014-02-25 04:19:00,23.8,14.5,30.11,SSE,165,0.0,1.0,67,0.00,,,0.00,WUHU216DAVISVP2,2014-02-25 09:19:00,
2014-02-25 04:24:00,24.0,14.0,30.11,SSE,148,0.0,1.0,65,0.00,,,0.00,WUHU216DAVISVP2,2014-02-25 09:24:00,
2014-02-25 04:29:00,24.2,14.1,30.11,NE,51,1.0,1.0,65,0.00,,,0.00,WUHU216DAVISVP2,2014-02-25 09:29:00,
2014-02-25 04:34:00,24.5,14.4,30.11,NE,40,1.0,2.0,65,0.00,,,0.00,WUHU216DAVISVP2,2014-02-25 09:34:00,
2014-02-25 04:39:00,25.1,14.7,30.11,NNE,27,1.0,4.0,64,0.00,,,0.00,WUHU216DAVISVP2,2014-02-25 09:39:00,
2014-02-25 04:44:00,25.6,15.2,30.11,SE,141,1.3,6.0,64,0.00,,,0.00,WUHU216DAVISVP2,2014-02-25 09:44:00,
2014-02-25 04:49:00,26.0,14.4,30.11,NW,304,1.9,6.0,61,0.00,,,0.00,WUHU216DAVISVP2,2014-02-25 09:49:00,
2014-02-25 04:54:00,26.8,14.8,30.11,NW,310,1.4,6.0,60,0.00,,,0.00,WUHU216DAVISVP2,2014-02-25 09:54:00,
2014-02-25 04:59:00,27.2,14.8,30.11,West,264,2.2,6.0,59,0.00,,,0.00,WUHU216DAVISVP2,2014-02-25 09:59:00,
2014-02-25 05:04:00,27.7,14.5,30.11,West,280,1.0,4.0,57,0.00,,,0.00,WUHU216DAVISVP2,2014-02-25 10:04:00,
2014-02-25 05:09:00,27.9,15.4,30.11,West,264,2.0,4.0,59,0.00,,,0.00,WUHU216DAVISVP2,2014-02-25 10:09:00,
2014-02-25 05:14:00,28.1,13.6,30.11,WNW,289,2.0,4.0,54,0.00,,,0.00,WUHU216DAVISVP2,2014-02-25 10:14:00,
2014-02-25 05:19:00,28.8,12.9,30.11,West,260,2.1,7.0,51,0.00,,,0.00,WUHU216DAVISVP2,2014-02-25 10:19:00,
2014-02-25 05:24:00,28.9,13.9,30.12,West,259,1.0,7.0,53,0.00,,,0.00,WUHU216DAVISVP2,2014-02-25 10:24:00,
2014-02-25 05:29:00,29.0,13.6,30.12,West,277,2.3,7.0,52,0.00,,,0.00,WUHU216DAVISVP2,2014-02-25 10:29:00,
2014-02-25 05:34:00,29.0,14.0,30.11,WSW,252,0.0,4.0,53,0.00,,,0.00,WUHU216DAVISVP2,2014-02-25 10:34:00,
2014-02-25 05:39:00,28.8,13.8,30.12,WNW,285,1.3,4.0,53,0.00,,,0.00,WUHU216DAVISVP2,2014-02-25 10:39:00,
2014-02-25 05:44:00,28.8,14.7,30.12,WNW,285,0.0,4.0,55,0.00,,,0.00,WUHU216DAVISVP2,2014-02-25 10:44:00,
2014-02-25 05:49:00,28.6,13.6,30.12,WNW,285,0.0,2.0,53,0.00,,,0.00,WUHU216DAVISVP2,2014-02-25 10:49:00,
2014-02-25 05:54:00,28.6,14.0,30.12,West,275,1.0,2.0,54,0.00,,,0.00,WUHU216DAVISVP2,2014-02-25 10:54:00,
2014-02-25 05:59:00,28.6,13.6,30.12,West,275,0.0,2.0,53,0.00,,,0.00,WUHU216DAVISVP2,2014-02-25 10:59:00,
2014-02-25 06:04:00,28.5,13.5,30.12,West,276,0.0,2.0,53,0.00,,,0.00,WUHU216DAVISVP2,2014-02-25 11:04:00,
2014-02-25 06:09:00,28.5,13.9,30.12,WNW,288,0.0,2.0,54,0.00,,,0.00,WUHU216DAVISVP2,2014-02-25 11:09:00,
2014-02-25 06:14:00,28.3,13.3,30.13,WNW,288,0.0,1.0,53,0.00,,,0.00,WUHU216DAVISVP2,2014-02-25 11:14:00,
2014-02-25 06:19:00,28.6,13.6,30.12,WNW,301,0.0,2.0,53,0.00,,,0.00,WUHU216DAVISVP2,2014-02-25 11:19:00,
2014-02-25 06:24:00,28.7,13.2,30.13,WNW,301,0.0,2.0,52,0.00,,,0.00,WUHU216DAVISVP2,2014-02-25 11:24:00,
2014-02-25 06:34:00,28.6,15.3,30.13,NNW,346,0.0,2.0,57,0.00,,,0.00,WUHU216DAVISVP2,2014-02-25 11:34:00,
2014-02-25 06:42:00,28.6,14.9,30.13,North,356,1.0,1.0,56,0.00,,,0.00,WUHU216DAVISVP2,2014-02-25 11:42:00,
2014-02-25 06:47:00,28.6,15.3,30.13,NNE,31,2.0,2.0,57,0.00,,,0.00,WUHU216DAVISVP2,2014-02-25 11:47:00,
2014-02-25 06:52:00,28.6,15.7,30.13,NNE,32,1.3,2.0,58,0.00,,,0.00,WUHU216DAVISVP2,2014-02-25 11:52:00,
2014-02-25 06:57:00,28.6,14.9,30.13,NNW,345,2.0,2.0,56,0.00,,,0.00,WUHU216DAVISVP2,2014-02-25 11:57:00,
2014-02-25 07:02:00,28.9,13.9,30.14,NW,318,4.0,4.0,53,0.00,,,0.00,WUHU216DAVISVP2,2014-02-25 12:02:00,
2014-02-25 07:06:00,29.0,13.1,30.14,NW,313,2.3,4.0,51,0.00,,,0.00,WUHU216DAVISVP2,2014-02-25 12:06:00,
2014-02-25 07:11:00,29.0,13.5,30.14,NW,310,2.3,5.0,52,0.00,,,0.00,WUHU216DAVISVP2,2014-02-25 12:11:00,
2014-02-25 07:16:00,29.0,13.1,30.14,NW,321,2.2,5.0,51,0.00,,,0.00,WUHU216DAVISVP2,2014-02-25 12:16:00,
2014-02-25 07:21:00,29.0,13.5,30.13,NW,321,4.0,5.0,52,0.00,,,0.00,WUHU216DAVISVP2,2014-02-25 12:21:00,
2014-02-25 07:26:00,29.0,12.7,30.13,NW,323,1.0,5.0,50,0.00,,,0.00,WUHU216DAVISVP2,2014-02-25 12:26:00,
2014-02-25 07:31:00,29.1,13.2,30.14,NW,323,1.6,4.0,51,0.00,,,0.00,WUHU216DAVISVP2,2014-02-25 12:31:00,
2014-02-25 07:36:00,29.0,12.6,30.14,NW,323,0.0,4.0,50,0.00,,,0.00,WUHU216DAVISVP2,2014-02-25 12:36:00,
2014-02-25 07:41:00,29.0,12.7,30.14,NW,320,1.0,4.0,50,0.00,,,0.00,WUHU216DAVISVP2,2014-02-25 12:41:00,
2014-02-25 07:46:00,29.1,13.2,30.14,NNW,333,1.0,4.0,51,0.00,,,0.00,WUHU216DAVISVP2,2014-02-25 12:46:00,
2014-02-25 07:51:00,29.2,13.3,30.14,WNW,298,1.2,4.0,51,0.00,,,0.00,WUHU216DAVISVP2,2014-02-25 12:51:00,
2014-02-25 07:56:00,29.2,13.3,30.14,NNW,330,1.6,3.0,51,0.00,,,0.00,WUHU216DAVISVP2,2014-02-25 12:56:00,
2014-02-25 08:01:00,29.3,13.3,30.15,WNW,288,1.3,3.0,51,0.00,,,0.00,WUHU216DAVISVP2,2014-02-25 13:01:00,
2014-02-25 08:06:00,29.4,13.9,30.15,ESE,104,2.0,4.0,52,0.00,,,0.00,WUHU216DAVISVP2,2014-02-25 13:06:00,
2014-02-25 08:11:00,29.4,13.9,30.15,NNW,346,3.0,4.0,52,0.00,,,0.00,WUHU216DAVISVP2,2014-02-25 13:11:00,
2014-02-25 08:16:00,29.4,13.9,30.15,South,173,1.1,4.0,52,0.00,,,0.00,WUHU216DAVISVP2,2014-02-25 13:16:00,
2014-02-25 08:21:00,29.5,14.4,30.16,WSW,258,1.2,3.0,53,0.00,,,0.00,WUHU216DAVISVP2,2014-02-25 13:21:00,
2014-02-25 08:26:00,29.6,15.8,30.15,NW,307,5.0,9.0,56,0.00,,,0.00,WUHU216DAVISVP2,2014-02-25 13:26:00,
2014-02-25 08:31:00,29.3,16.8,30.16,WNW,290,2.0,11.0,59,0.00,,,0.00,WUHU216DAVISVP2,2014-02-25 13:31:00,
2014-02-25 08:36:00,29.2,16.6,30.16,SW,222,3.0,11.0,59,0.00,,,0.00,WUHU216DAVISVP2,2014-02-25 13:36:00,
2014-02-25 08:41:00,29.1,17.7,30.16,NW,321,4.0,10.0,62,0.00,,,0.00,WUHU216DAVISVP2,2014-02-25 13:41:00,
2014-02-25 08:46:00,28.9,17.9,30.16,SSW,205,2.0,10.0,63,0.00,,,0.00,WUHU216DAVISVP2,2014-02-25 13:46:00,
2014-02-25 08:51:00,28.8,18.9,30.15,NE,43,1.0,7.0,66,0.00,,,0.00,WUHU216DAVISVP2,2014-02-25 13:51:00,
2014-02-25 08:56:00,28.8,18.6,30.16,WSW,248,1.1,7.0,65,0.00,,,0.00,WUHU216DAVISVP2,2014-02-25 13:56:00,
2014-02-25 09:01:00,28.8,18.6,30.16,WSW,244,2.2,6.0,65,0.00,,,0.00,WUHU216DAVISVP2,2014-02-25 14:01:00,
2014-02-25 09:06:00,28.7,19.2,30.16,SSW,205,2.7,7.0,67,0.00,,,0.00,WUHU216DAVISVP2,2014-02-25 14:06:00,
2014-02-25 09:11:00,28.5,19.7,30.15,SSW,211,7.0,7.0,69,0.00,,,0.00,WUHU216DAVISVP2,2014-02-25 14:11:00,
2014-02-25 09:16:00,28.5,20.0,30.15,SSW,197,1.0,7.0,70,0.00,,,0.00,WUHU216DAVISVP2,2014-02-25 14:16:00,
2014-02-25 09:21:00,28.5,20.3,30.15,SW,218,2.0,7.0,71,0.00,,,0.00,WUHU216DAVISVP2,2014-02-25 14:21:00,
2014-02-25 09:26:00,28.4,20.6,30.15,SW,214,2.0,8.0,72,0.00,,,0.00,WUHU216DAVISVP2,2014-02-25 14:26:00,
2014-02-25 09:31:00,28.4,20.8,30.15,SSW,211,2.0,8.0,73,0.00,,,0.00,WUHU216DAVISVP2,2014-02-25 14:31:00,
2014-02-25 09:36:00,28.3,21.4,30.15,SW,214,1.3,8.0,75,0.00,,,0.00,WUHU216DAVISVP2,2014-02-25 14:36:00,
2014-02-25 09:41:00,28.1,21.8,30.15,South,184,2.0,8.0,77,0.00,,,0.00,WUHU216DAVISVP2,2014-02-25 14:41:00,
2014-02-25 09:46:00,27.9,21.6,30.15,SSE,168,1.7,5.0,77,0.00,,,0.00,WUHU216DAVISVP2,2014-02-25 14:46:00,
2014-02-25 09:51:00,27.9,22.2,30.15,SSW,195,3.0,5.0,79,0.00,,,0.00,WUHU216DAVISVP2,2014-02-25 14:51:00,
2014-02-25 09:56:00,28.0,22.3,30.15,West,264,1.0,5.0,79,0.00,,,0.00,WUHU216DAVISVP2,2014-02-25 14:56:00,
2014-02-25 10:01:00,28.1,22.4,30.15,SW,229,0.0,5.0,79,0.00,,,0.00,WUHU216DAVISVP2,2014-02-25 15:01:00,
2014-02-25 10:06:00,28.5,22.5,30.14,SW,215,3.0,5.0,78,0.00,,,0.00,WUHU216DAVISVP2,2014-02-25 15:06:00,
2014-02-25 10:11:00,28.6,22.0,30.14,WNW,284,3.5,6.0,76,0.00,,,0.00,WUHU216DAVISVP2,2014-02-25 15:11:00,
2014-02-25 10:16:00,28.7,22.1,30.14,NW,304,3.0,10.0,76,0.00,,,0.00,WUHU216DAVISVP2,2014-02-25 15:16:00,
2014-02-25 10:21:00,28.6,22.0,30.14,WSW,242,2.5,10.0,76,0.00,,,0.00,WUHU216DAVISVP2,2014-02-25 15:21:00,
2014-02-25 10:26:00,28.9,22.6,30.14,West,268,1.0,9.0,77,0.00,,,0.00,WUHU216DAVISVP2,2014-02-25 15:26:00,
2014-02-25 10:31:00,28.9,22.3,30.14,WNW,297,2.0,9.0,76,0.00,,,0.00,WUHU216DAVISVP2,2014-02-25 15:31:00,
2014-02-25 10:36:00,29.2,22.6,30.14,SW,227,1.6,8.0,76,0.00,,,0.00,WUHU216DAVISVP2,2014-02-25 15:36:00,
2014-02-25 10:41:00,29.4,22.5,30.14,West,272,2.1,7.0,75,0.00,,,0.00,WUHU216DAVISVP2,2014-02-25 15:41:00,
2014-02-25 10:46:00,30.1,22.8,30.13,WSW,256,2.0,7.0,74,0.00,,,0.00,WUHU216DAVISVP2,2014-02-25 15:46:00,
2014-02-25 10:51:00,30.6,23.3,30.13,NW,317,2.0,5.0,74,0.00,,,0.00,WUHU216DAVISVP2,2014-02-25 15:51:00,
2014-02-25 10:56:00,30.6,21.7,30.13,WSW,258,3.4,10.0,69,0.00,,,0.00,WUHU216DAVISVP2,2014-02-25 15:56:00,
2014-02-25 11:01:00,31.1,22.5,30.13,SSE,155,2.0,10.0,70,0.00,,,0.00,WUHU216DAVISVP2,2014-02-25 16:01:00,
2014-02-25 11:06:00,31.7,23.1,30.13,SSW,198,4.0,9.0,70,0.00,,,0.00,WUHU216DAVISVP2,2014-02-25 16:06:00,
2014-02-25 11:11:00,31.2,24.2,30.13,SSE,164,5.0,12.0,75,0.00,,,0.00,WUHU216DAVISVP2,2014-02-25 16:11:00,
2014-02-25 11:16:00,30.6,24.3,30.13,South,180,4.8,12.0,77,0.00,,,0.00,WUHU216DAVISVP2,2014-02-25 16:16:00,
2014-02-25 11:21:00,30.4,24.7,30.12,SSE,149,4.3,12.0,79,0.00,,,0.00,WUHU216DAVISVP2,2014-02-25 16:21:00,
2014-02-25 11:26:00,30.7,25.3,30.12,SSW,196,5.5,12.0,80,0.00,,,0.00,WUHU216DAVISVP2,2014-02-25 16:26:00,
2014-02-25 11:31:00,31.6,25.5,30.11,South,190,4.1,12.0,78,0.00,,,0.00,WUHU216DAVISVP2,2014-02-25 16:31:00,
2014-02-25 11:36:00,32.0,25.6,30.11,SSE,157,5.7,12.0,77,0.00,,,0.00,WUHU216DAVISVP2,2014-02-25 16:36:00,
2014-02-25 11:41:00,32.2,25.5,30.11,SSE,166,7.0,12.0,76,0.00,,,0.00,WUHU216DAVISVP2,2014-02-25 16:41:00,
2014-02-25 11:46:00,31.9,25.2,30.11,SSE,154,8.0,12.0,76,0.00,,,0.00,WUHU216DAVISVP2,2014-02-25 16:46:00,
2014-02-25 11:51:00,31.8,25.4,30.11,SSE,159,4.4,13.0,77,0.00,,,0.00,WUHU216DAVISVP2,2014-02-25 16:51:00,
2014-02-25 11:56:00,32.0,25.3,30.10,SSE,153,8.0,13.0,76,0.00,,,0.00,WUHU216DAVISVP2,2014-02-25 16:56:00,
2014-02-25 12:01:00,31.3,24.6,30.10,SSE,156,4.7,13.0,76,0.00,,,0.00,WUHU216DAVISVP2,2014-02-25 17:01:00,
2014-02-25 12:06:00,31.2,24.9,30.10,SSW,204,2.5,12.0,77,0.00,,,0.00,WUHU216DAVISVP2,2014-02-25 17:06:00,
2014-02-25 12:11:00,31.2,24.5,30.10,SW,228,2.2,12.0,76,0.00,,,0.00,WUHU216DAVISVP2,2014-02-25 17:11:00,
2014-02-25 12:16:00,31.2,24.5,30.09,SSE,160,4.0,11.0,76,0.00,,,0.00,WUHU216DAVISVP2,2014-02-25 17:16:00,
2014-02-25 12:21:00,31.0,24.4,30.09,SSE,164,3.6,6.0,76,0.00,,,0.00,WUHU216DAVISVP2,2014-02-25 17:21:00,
2014-02-25 12:26:00,31.2,24.8,30.09,SE,136,6.0,8.0,77,0.00,,,0.00,WUHU216DAVISVP2,2014-02-25 17:26:00,
2014-02-25 12:31:00,30.9,24.5,30.09,SSE,149,3.6,8.0,77,0.00,,,0.00,WUHU216DAVISVP2,2014-02-25 17:31:00,
2014-02-25 12:36:00,30.9,24.9,30.09,West,280,1.4,8.0,78,0.00,,,0.00,WUHU216DAVISVP2,2014-02-25 17:36:00,
2014-02-25 12:41:00,31.2,22.6,30.08,NNW,330,1.3,8.0,70,0.00,,,0.00,WUHU216DAVISVP2,2014-02-25 17:41:00,
2014-02-25 12:46:00,31.7,21.0,30.08,West,265,4.0,9.0,64,0.00,,,0.00,WUHU216DAVISVP2,2014-02-25 17:46:00,
2014-02-25 12:51:00,31.9,21.5,30.08,WNW,293,3.0,9.0,65,0.00,,,0.00,WUHU216DAVISVP2,2014-02-25 17:51:00,
2014-02-25 12:56:00,32.3,21.2,30.08,WNW,294,4.2,9.0,63,0.00,,,0.00,WUHU216DAVISVP2,2014-02-25 17:56:00,
2014-02-25 13:01:00,32.1,21.0,30.08,NW,312,5.0,11.0,63,0.00,,,0.00,WUHU216DAVISVP2,2014-02-25 18:01:00,
2014-02-25 13:06:00,32.0,20.8,30.07,NW,304,5.0,11.0,63,0.00,,,0.00,WUHU216DAVISVP2,2014-02-25 18:06:00,
2014-02-25 13:11:00,31.6,21.2,30.07,NW,323,4.3,11.0,65,0.00,,,0.00,WUHU216DAVISVP2,2014-02-25 18:11:00,
2014-02-25 13:16:00,31.4,21.4,30.07,WNW,295,4.0,11.0,66,0.00,,,0.00,WUHU216DAVISVP2,2014-02-25 18:16:00,
2014-02-25 13:21:00,31.4,21.1,30.06,WNW,294,3.0,9.0,65,0.00,,,0.00,WUHU216DAVISVP2,2014-02-25 18:21:00,
2014-02-25 13:26:00,31.7,21.7,30.06,NW,314,1.1,9.0,66,0.00,,,0.00,WUHU216DAVISVP2,2014-02-25 18:26:00,
2014-02-25 13:31:00,31.9,21.2,30.06,WNW,299,5.0,7.0,64,0.00,,,0.00,WUHU216DAVISVP2,2014-02-25 18:31:00,
2014-02-25 13:36:00,32.0,21.6,30.06,NNW,336,5.0,8.0,65,0.00,,,0.00,WUHU216DAVISVP2,2014-02-25 18:36:00,
2014-02-25 13:41:00,31.9,21.5,30.06,NNW,340,5.0,8.0,65,0.00,,,0.00,WUHU216DAVISVP2,2014-02-25 18:41:00,
2014-02-25 13:42:00,32.0,21.6,30.06,WNW,297,4.9,8.0,65,0.00,,,0.00,WUHU216DAVISVP2,2014-02-25 18:42:00,
2014-02-25 13:47:00,32.1,20.9,30.06,NW,313,3.2,10.0,63,0.00,,,0.00,WUHU216DAVISVP2,2014-02-25 18:47:00,
2014-02-25 13:52:00,32.3,21.9,30.06,WNW,291,3.5,10.0,65,0.00,,,0.00,WUHU216DAVISVP2,2014-02-25 18:52:00,
2014-02-25 13:57:00,32.2,22.2,30.06,WNW,285,2.7,10.0,66,0.00,,,0.00,WUHU216DAVISVP2,2014-02-25 18:57:00,
2014-02-25 14:02:00,32.2,22.2,30.06,West,271,2.8,10.0,66,0.00,,,0.00,WUHU216DAVISVP2,2014-02-25 19:02:00,
2014-02-25 14:07:00,32.9,22.5,30.05,West,273,7.0,14.0,65,0.00,,,0.00,WUHU216DAVISVP2,2014-02-25 19:07:00,
2014-02-25 14:12:00,33.6,21.6,30.05,WNW,287,3.8,14.0,61,0.00,,,0.00,WUHU216DAVISVP2,2014-02-25 19:12:00,
2014-02-25 14:17:00,34.4,22.8,30.04,WSW,242,6.0,14.0,62,0.00,,,0.00,WUHU216DAVISVP2,2014-02-25 19:17:00,
2014-02-25 14:22:00,34.5,21.7,30.04,West,280,4.1,14.0,59,0.00,,,0.00,WUHU216DAVISVP2,2014-02-25 19:22:00,
2014-02-25 14:27:00,34.1,20.9,30.04,WNW,290,10.0,14.0,58,0.00,,,0.00,WUHU216DAVISVP2,2014-02-25 19:27:00,
2014-02-25 14:32:00,33.9,20.7,30.04,WSW,252,3.6,13.0,58,0.00,,,0.00,WUHU216DAVISVP2,2014-02-25 19:32:00,
2014-02-25 14:37:00,34.5,20.9,30.04,SW,215,5.0,13.0,57,0.00,,,0.00,WUHU216DAVISVP2,2014-02-25 19:37:00,
2014-02-25 14:42:00,34.0,20.4,30.04,WNW,282,4.0,13.0,57,0.00,,,0.00,WUHU216DAVISVP2,2014-02-25 19:42:00,
2014-02-25 14:47:00,33.8,20.6,30.04,West,264,8.0,11.0,58,0.00,,,0.00,WUHU216DAVISVP2,2014-02-25 19:47:00,
2014-02-25 14:52:00,33.4,19.8,30.04,West,260,5.0,11.0,57,0.00,,,0.00,WUHU216DAVISVP2,2014-02-25 19:52:00,
2014-02-25 14:57:00,34.0,21.2,30.03,WNW,290,5.0,10.0,59,0.00,,,0.00,WUHU216DAVISVP2,2014-02-25 19:57:00,
2014-02-25 15:02:00,34.5,19.6,30.04,WSW,256,3.9,12.0,54,0.00,,,0.00,WUHU216DAVISVP2,2014-02-25 20:02:00,
2014-02-25 15:07:00,34.9,19.9,30.03,NW,326,3.0,12.0,54,0.00,,,0.00,WUHU216DAVISVP2,2014-02-25 20:07:00,
2014-02-25 15:12:00,34.6,18.3,30.03,WSW,240,5.0,12.0,51,0.00,,,0.00,WUHU216DAVISVP2,2014-02-25 20:12:00,
2014-02-25 15:17:00,34.2,17.5,30.03,WSW,252,6.5,15.0,50,0.00,,,0.00,WUHU216DAVISVP2,2014-02-25 20:17:00,
2014-02-25 15:22:00,33.9,18.1,30.03,WNW,301,6.0,15.0,52,0.00,,,0.00,WUHU216DAVISVP2,2014-02-25 20:22:00,
2014-02-25 15:27:00,33.8,18.0,30.03,NW,309,12.0,15.0,52,0.00,,,0.00,WUHU216DAVISVP2,2014-02-25 20:27:00,
2014-02-25 15:32:00,33.7,17.9,30.03,WNW,285,3.8,15.0,52,0.00,,,0.00,WUHU216DAVISVP2,2014-02-25 20:32:00,
2014-02-25 15:37:00,33.7,17.9,30.03,WSW,238,6.0,14.0,52,0.00,,,0.00,WUHU216DAVISVP2,2014-02-25 20:37:00,
2014-02-25 15:42:00,33.5,17.7,30.03,SSW,210,3.0,14.0,52,0.00,,,0.00,WUHU216DAVISVP2,2014-02-25 20:42:00,
2014-02-25 15:47:00,33.5,16.8,30.03,WSW,245,6.0,10.0,50,0.00,,,0.00,WUHU216DAVISVP2,2014-02-25 20:47:00,
2014-02-25 15:52:00,33.6,16.9,30.03,West,266,2.8,10.0,50,0.00,,,0.00,WUHU216DAVISVP2,2014-02-25 20:52:00,
2014-02-25 15:57:00,34.0,16.8,30.02,WNW,290,7.0,12.0,49,0.00,,,0.00,WUHU216DAVISVP2,2014-02-25 20:57:00,
2014-02-25 16:02:00,34.0,15.8,30.03,WNW,291,5.0,12.0,47,0.00,,,0.00,WUHU216DAVISVP2,2014-02-25 21:02:00,
2014-02-25 16:07:00,34.1,16.4,30.02,WSW,255,2.6,12.0,48,0.00,,,0.00,WUHU216DAVISVP2,2014-02-25 21:07:00,
2014-02-25 16:12:00,34.2,16.5,30.02,West,280,3.9,12.0,48,0.00,,,0.00,WUHU216DAVISVP2,2014-02-25 21:12:00,
2014-02-25 16:17:00,34.0,15.8,30.02,West,270,5.0,13.0,47,0.00,,,0.00,WUHU216DAVISVP2,2014-02-25 21:17:00,
2014-02-25 16:22:00,34.6,16.3,30.03,WSW,255,3.8,13.0,47,0.00,,,0.00,WUHU216DAVISVP2,2014-02-25 21:22:00,
2014-02-25 16:27:00,34.8,14.4,30.03,WSW,255,6.1,16.0,43,0.00,,,0.00,WUHU216DAVISVP2,2014-02-25 21:27:00,
2014-02-25 16:32:00,34.8,14.9,30.02,WSW,256,6.3,17.0,44,0.00,,,0.00,WUHU216DAVISVP2,2014-02-25 21:32:00,
2014-02-25 16:37:00,34.5,15.2,30.03,West,271,4.6,17.0,45,0.00,,,0.00,WUHU216DAVISVP2,2014-02-25 21:37:00,
2014-02-25 16:42:00,34.3,15.5,30.03,West,274,4.0,16.0,46,0.00,,,0.00,WUHU216DAVISVP2,2014-02-25 21:42:00,
2014-02-25 16:47:00,34.1,14.8,30.03,WNW,297,5.0,16.0,45,0.00,,,0.00,WUHU216DAVISVP2,2014-02-25 21:47:00,
2014-02-25 16:52:00,34.0,15.4,30.03,NW,318,6.2,20.0,46,0.00,,,0.00,WUHU216DAVISVP2,2014-02-25 21:52:00,
2014-02-25 16:57:00,33.8,15.2,30.03,NNW,336,8.0,20.0,46,0.00,,,0.00,WUHU216DAVISVP2,2014-02-25 21:57:00,
2014-02-25 17:02:00,33.5,15.4,30.03,WNW,295,3.6,20.0,47,0.00,,,0.00,WUHU216DAVISVP2,2014-02-25 22:02:00,
2014-02-25 17:07:00,33.3,15.7,30.04,North,8,5.0,20.0,48,0.00,,,0.00,WUHU216DAVISVP2,2014-02-25 22:07:00,
2014-02-25 17:11:00,33.0,15.8,30.04,NW,315,2.6,12.0,49,0.00,,,0.00,WUHU216DAVISVP2,2014-02-25 22:11:00,
2014-02-25 17:16:00,32.7,15.6,30.04,NW,316,5.0,10.0,49,0.00,,,0.00,WUHU216DAVISVP2,2014-02-25 22:16:00,
2014-02-25 17:21:00,32.5,15.9,30.04,WNW,301,3.8,10.0,50,0.00,,,0.00,WUHU216DAVISVP2,2014-02-25 22:21:00,
2014-02-25 17:26:00,32.4,15.3,30.04,WNW,289,4.0,8.0,49,0.00,,,0.00,WUHU216DAVISVP2,2014-02-25 22:26:00,
2014-02-25 17:31:00,32.3,15.7,30.04,NW,320,1.2,8.0,50,0.00,,,0.00,WUHU216DAVISVP2,2014-02-25 22:31:00,
2014-02-25 17:36:00,32.0,15.4,30.05,West,281,2.1,8.0,50,0.00,,,0.00,WUHU216DAVISVP2,2014-02-25 22:36:00,
2014-02-25 17:41:00,31.7,15.1,30.05,NW,316,7.0,10.0,50,0.00,,,0.00,WUHU216DAVISVP2,2014-02-25 22:41:00,
2014-02-25 17:46:00,31.6,15.0,30.05,WNW,301,4.0,12.0,50,0.00,,,0.00,WUHU216DAVISVP2,2014-02-25 22:46:00,
2014-02-25 17:51:00,31.3,15.2,30.05,NW,322,2.8,12.0,51,0.00,,,0.00,WUHU216DAVISVP2,2014-02-25 22:51:00,
2014-02-25 17:56:00,30.9,15.7,30.05,North,8,2.0,12.0,53,0.00,,,0.00,WUHU216DAVISVP2,2014-02-25 22:56:00,
2014-02-25 18:01:00,30.8,15.2,30.04,NNW,344,1.5,8.0,52,0.00,,,0.00,WUHU216DAVISVP2,2014-02-25 23:01:00,
2014-02-25 18:06:00,30.6,15.5,30.04,North,6,1.1,8.0,53,0.00,,,0.00,WUHU216DAVISVP2,2014-02-25 23:06:00,
2014-02-25 18:11:00,30.3,15.6,30.05,NNW,340,1.1,8.0,54,0.00,,,0.00,WUHU216DAVISVP2,2014-02-25 23:11:00,
2014-02-25 18:16:00,30.1,15.0,30.06,NW,326,2.9,8.0,53,0.00,,,0.00,WUHU216DAVISVP2,2014-02-25 23:16:00,
2014-02-25 18:21:00,30.0,15.3,30.06,NW,318,1.1,6.0,54,0.00,,,0.00,WUHU216DAVISVP2,2014-02-25 23:21:00,
2014-02-25 18:26:00,29.9,15.7,30.07,North,354,1.5,6.0,55,0.00,,,0.00,WUHU216DAVISVP2,2014-02-25 23:26:00,
2014-02-25 18:31:00,29.6,15.4,30.07,NW,323,1.0,6.0,55,0.00,,,0.00,WUHU216DAVISVP2,2014-02-25 23:31:00,
2014-02-25 18:36:00,29.4,15.2,30.08,NW,323,1.1,4.0,55,0.00,,,0.00,WUHU216DAVISVP2,2014-02-25 23:36:00,
2014-02-25 18:41:00,29.5,15.3,30.08,WNW,298,1.3,5.0,55,0.00,,,0.00,WUHU216DAVISVP2,2014-02-25 23:41:00,
2014-02-25 18:46:00,29.5,15.3,30.07,NW,308,0.0,5.0,55,0.00,,,0.00,WUHU216DAVISVP2,2014-02-25 23:46:00,
2014-02-25 18:51:00,29.2,15.4,30.07,North,360,5.0,5.0,56,0.00,,,0.00,WUHU216DAVISVP2,2014-02-25 23:51:00,
2014-02-25 18:56:00,29.3,15.1,30.07,NW,312,2.1,9.0,55,0.00,,,0.00,WUHU216DAVISVP2,2014-02-25 23:56:00,
2014-02-25 19:01:00,29.2,15.0,30.07,NNE,29,3.0,9.0,55,0.00,,,0.00,WUHU216DAVISVP2,2014-02-26 00:01:00,
2014-02-25 19:06:00,29.1,14.9,30.07,NW,316,4.0,8.0,55,0.00,,,0.00,WUHU216DAVISVP2,2014-02-26 00:06:00,
2014-02-25 19:11:00,29.2,15.0,30.07,NW,312,2.1,8.0,55,0.00,,,0.00,WUHU216DAVISVP2,2014-02-26 00:11:00,
2014-02-25 19:16:00,29.0,14.8,30.06,NW,315,2.8,6.0,55,0.00,,,0.00,WUHU216DAVISVP2,2014-02-26 00:16:00,
2014-02-25 19:21:00,29.1,14.9,30.07,NW,326,3.0,8.0,55,0.00,,,0.00,WUHU216DAVISVP2,2014-02-26 00:21:00,
2014-02-25 19:26:00,29.0,14.8,30.07,NW,322,1.3,8.0,55,0.00,,,0.00,WUHU216DAVISVP2,2014-02-26 00:26:00,
2014-02-25 19:31:00,28.8,15.1,30.07,WNW,301,1.4,8.0,56,0.00,,,0.00,WUHU216DAVISVP2,2014-02-26 00:31:00,
2014-02-25 19:36:00,28.5,15.2,30.07,WNW,300,2.0,8.0,57,0.00,,,0.00,WUHU216DAVISVP2,2014-02-26 00:36:00,
2014-02-25 19:41:00,28.3,14.6,30.08,WNW,284,1.5,4.0,56,0.00,,,0.00,WUHU216DAVISVP2,2014-02-26 00:41:00,
2014-02-25 19:46:00,28.1,15.2,30.08,NW,323,1.0,4.0,58,0.00,,,0.00,WUHU216DAVISVP2,2014-02-26 00:46:00,
2014-02-25 19:51:00,27.9,15.1,30.08,West,275,1.2,6.0,58,0.00,,,0.00,WUHU216DAVISVP2,2014-02-26 00:51:00,
2014-02-25 19:56:00,27.6,15.2,30.08,West,276,1.5,6.0,59,0.00,,,0.00,WUHU216DAVISVP2,2014-02-26 00:56:00,
2014-02-25 20:01:00,27.6,15.1,30.08,NW,304,3.2,6.0,59,0.00,,,0.00,WUHU216DAVISVP2,2014-02-26 01:01:00,
2014-02-25 20:06:00,27.7,14.9,30.08,WNW,286,1.0,6.0,58,0.00,,,0.00,WUHU216DAVISVP2,2014-02-26 01:06:00,
2014-02-25 20:11:00,27.4,15.0,30.08,NW,309,2.3,6.0,59,0.00,,,0.00,WUHU216DAVISVP2,2014-02-26 01:11:00,
2014-02-25 20:16:00,27.5,14.7,30.09,NW,316,0.0,6.0,58,0.00,,,0.00,WUHU216DAVISVP2,2014-02-26 01:16:00,
2014-02-25 20:21:00,27.3,14.5,30.08,NW,316,0.0,4.0,58,0.00,,,0.00,WUHU216DAVISVP2,2014-02-26 01:21:00,
2014-02-25 20:26:00,27.4,14.6,30.08,NW,326,1.0,4.0,58,0.00,,,0.00,WUHU216DAVISVP2,2014-02-26 01:26:00,
2014-02-25 20:31:00,27.5,14.7,30.08,NW,326,1.0,2.0,58,0.00,,,0.00,WUHU216DAVISVP2,2014-02-26 01:31:00,
2014-02-25 20:36:00,27.7,14.9,30.08,NW,313,2.1,5.0,58,0.00,,,0.00,WUHU216DAVISVP2,2014-02-26 01:36:00,
2014-02-25 20:41:00,27.7,15.3,30.07,NW,314,1.4,5.0,59,0.00,,,0.00,WUHU216DAVISVP2,2014-02-26 01:41:00,
2014-02-25 20:46:00,27.5,15.1,30.07,NNW,332,3.0,5.0,59,0.00,,,0.00,WUHU216DAVISVP2,2014-02-26 01:46:00,
2014-02-25 20:51:00,27.4,15.4,30.08,NE,34,0.0,5.0,60,0.00,,,0.00,WUHU216DAVISVP2,2014-02-26 01:51:00,
2014-02-25 20:56:00,27.1,15.1,30.08,NE,34,1.0,4.0,60,0.00,,,0.00,WUHU216DAVISVP2,2014-02-26 01:56:00,
2014-02-25 21:01:00,26.8,15.5,30.08,ENE,66,1.0,4.0,62,0.00,,,0.00,WUHU216DAVISVP2,2014-02-26 02:01:00,
2014-02-25 21:06:00,26.7,15.8,30.08,ENE,66,0.0,1.0,63,0.00,,,0.00,WUHU216DAVISVP2,2014-02-26 02:06:00,
2014-02-25 21:19:00,26.4,16.2,30.07,ENE,66,0.0,1.0,65,0.00,,,0.00,WUHU216DAVISVP2,2014-02-26 02:19:00,
2014-02-25 21:28:00,27.0,16.4,30.07,WNW,288,1.0,2.0,64,0.00,,,0.00,WUHU216DAVISVP2,2014-02-26 02:28:00,
2014-02-25 21:33:00,26.9,16.4,30.06,WNW,293,1.0,3.0,64,0.00,,,0.00,WUHU216DAVISVP2,2014-02-26 02:33:00,
2014-02-25 21:37:00,27.0,16.5,30.06,WNW,301,1.1,3.0,64,0.00,,,0.00,WUHU216DAVISVP2,2014-02-26 02:37:00,
2014-02-25 21:42:00,26.9,16.0,30.06,NW,322,0.0,3.0,63,0.00,,,0.00,WUHU216DAVISVP2,2014-02-26 02:42:00,
2014-02-25 21:47:00,26.6,16.1,30.07,NNW,342,1.0,3.0,64,0.00,,,0.00,WUHU216DAVISVP2,2014-02-26 02:47:00,
2014-02-25 21:52:00,26.5,15.7,30.07,SSE,152,1.0,2.0,63,0.00,,,0.00,WUHU216DAVISVP2,2014-02-26 02:52:00,
2014-02-25 21:57:00,26.3,16.2,30.07,SE,141,0.0,2.0,65,0.00,,,0.00,WUHU216DAVISVP2,2014-02-26 02:57:00,
2014-02-25 22:02:00,26.2,16.8,30.07,SE,141,0.0,1.0,67,0.00,,,0.00,WUHU216DAVISVP2,2014-02-26 03:02:00,
2014-02-25 22:07:00,26.1,16.7,30.07,SE,141,0.0,1.0,67,0.00,,,0.00,WUHU216DAVISVP2,2014-02-26 03:07:00,
2014-02-25 22:12:00,26.3,16.5,30.06,WNW,283,1.0,1.0,66,0.00,,,0.00,WUHU216DAVISVP2,2014-02-26 03:12:00,
2014-02-25 22:17:00,26.4,17.3,30.06,NW,310,1.3,2.0,68,0.00,,,0.00,WUHU216DAVISVP2,2014-02-26 03:17:00,
2014-02-25 22:22:00,26.3,16.8,30.06,NW,307,1.0,2.0,67,0.00,,,0.00,WUHU216DAVISVP2,2014-02-26 03:22:00,
2014-02-25 22:27:00,25.9,17.5,30.06,NW,307,0.0,2.0,70,0.00,,,0.00,WUHU216DAVISVP2,2014-02-26 03:27:00,
2014-02-25 22:32:00,25.5,17.4,30.06,NW,307,0.0,2.0,71,0.00,,,0.00,WUHU216DAVISVP2,2014-02-26 03:32:00,
2014-02-25 22:37:00,25.2,16.8,30.06,NW,308,0.0,2.0,70,0.00,,,0.00,WUHU216DAVISVP2,2014-02-26 03:37:00,
2014-02-25 22:42:00,25.2,16.1,30.06,NW,307,0.0,1.0,68,0.00,,,0.00,WUHU216DAVISVP2,2014-02-26 03:42:00,
2014-02-25 22:54:00,25.2,16.2,30.06,NE,41,0.0,1.0,68,0.00,,,0.00,WUHU216DAVISVP2,2014-02-26 03:54:00,
2014-02-25 22:59:00,24.8,16.8,30.05,East,86,1.0,1.0,71,0.00,,,0.00,WUHU216DAVISVP2,2014-02-26 03:59:00,
2014-02-25 23:04:00,24.6,17.2,30.05,East,92,0.0,1.0,73,0.00,,,0.00,WUHU216DAVISVP2,2014-02-26 04:04:00,
2014-02-25 23:09:00,24.3,17.2,30.05,East,92,0.0,1.0,74,0.00,,,0.00,WUHU216DAVISVP2,2014-02-26 04:09:00,
2014-02-25 23:14:00,24.1,17.7,30.05,East,92,0.0,1.0,76,0.00,,,0.00,WUHU216DAVISVP2,2014-02-26 04:14:00,
2014-02-25 23:19:00,24.0,17.3,30.04,East,92,0.0,1.0,75,0.00,,,0.00,WUHU216DAVISVP2,2014-02-26 04:19:00,
2014-02-25 23:24:00,24.0,17.2,30.04,East,91,0.0,0.0,75,0.00,,,0.00,WUHU216DAVISVP2,2014-02-26 04:24:00,
2014-02-25 23:29:00,23.8,16.7,30.04,East,91,0.0,0.0,74,0.00,,,0.00,WUHU216DAVISVP2,2014-02-26 04:29:00,
2014-02-25 23:34:00,23.7,16.4,30.04,East,92,0.0,0.0,73,0.00,,,0.00,WUHU216DAVISVP2,2014-02-26 04:34:00,
2014-02-25 23:39:00,23.7,16.4,30.04,NE,46,1.0,1.0,73,0.00,,,0.00,WUHU216DAVISVP2,2014-02-26 04:39:00,
2014-02-25 23:44:00,24.0,16.3,30.03,NE,45,0.0,1.0,72,0.00,,,0.00,WUHU216DAVISVP2,2014-02-26 04:44:00,
2014-02-25 23:49:00,24.3,16.0,30.04,SW,224,1.0,3.0,70,0.00,,,0.00,WUHU216DAVISVP2,2014-02-26 04:49:00,
2014-02-25 23:54:00,23.9,16.2,30.04,SW,224,0.0,3.0,72,0.00,,,0.00,WUHU216DAVISVP2,2014-02-26 04:54:00,
2014-02-25 23:59:00,23.5,16.1,30.04,WNW,294,1.0,3.0,73,0.00,,,0.00,WUHU216DAVISVP2,2014-02-26 04:59:00,